Time;durP1;ratioP1;P1;durP2;ratioP2;P2;SDS_P1;SDS_P2;PMS_P1;PMS_P2;Temp;Humidity;BMP_temperature;BMP_pressure;BME280_temperature;BME280_humidity;BME280_pressure;Samples;Min_cycle;Max_cycle;Signal;HPM_P1;HPM_P2
2022/11/14 00:01:14;;;;;;;86.60;30.35;;;5.40;99.90;;;;;;5013058;28;20117;-88
2022/11/14 00:03:59;;;;;;;88.30;31.92;;;5.40;99.90;;;;;;5005461;28;20525;-87
2022/11/14 00:06:43;;;;;;;88.32;32.40;;;5.40;99.90;;;;;;5015703;28;20053;-89
2022/11/14 00:09:28;;;;;;;86.25;31.33;;;5.50;99.90;;;;;;5014180;28;20049;-89
2022/11/14 00:12:13;;;;;;;99.05;33.17;;;5.50;99.90;;;;;;5004844;28;20049;-89
2022/11/14 00:14:58;;;;;;;87.03;32.78;;;5.50;99.90;;;;;;5013862;28;20049;-85
2022/11/14 00:17:43;;;;;;;83.30;34.70;;;5.50;99.90;;;;;;5004567;28;20050;-89
2022/11/14 00:20:27;;;;;;;80.10;30.92;;;5.50;99.90;;;;;;4986071;28;20404;-88
2022/11/14 00:23:12;;;;;;;70.32;27.90;;;5.40;99.90;;;;;;4993344;28;20065;-86
2022/11/14 00:25:56;;;;;;;65.60;26.30;;;5.20;99.90;;;;;;4985553;28;20057;-87
2022/11/14 00:28:41;;;;;;;58.72;25.30;;;5.10;99.90;;;;;;4985543;28;20045;-87
2022/11/14 00:31:26;;;;;;;44.47;22.77;;;5.00;99.90;;;;;;4993952;28;20054;-88
2022/11/14 00:34:10;;;;;;;46.67;21.75;;;4.90;99.90;;;;;;4996450;28;20387;-87
2022/11/14 00:36:55;;;;;;;55.83;24.27;;;4.90;99.90;;;;;;4996628;28;20038;-85
2022/11/14 00:39:39;;;;;;;59.20;23.02;;;4.90;99.90;;;;;;4993821;28;20053;-85
2022/11/14 00:42:23;;;;;;;45.95;22.30;;;4.80;99.90;;;;;;4999104;28;20054;-86
2022/11/14 00:45:09;;;;;;;49.63;21.55;;;4.80;99.90;;;;;;4998796;28;20053;-85
2022/11/14 00:47:54;;;;;;;49.25;21.90;;;4.70;99.90;;;;;;4993375;28;20045;-85
2022/11/14 00:50:38;;;;;;;49.03;20.52;;;4.70;99.90;;;;;;4997060;28;20057;-83
2022/11/14 00:53:23;;;;;;;48.08;21.98;;;4.70;99.90;;;;;;4997109;28;20053;-87
2022/11/14 00:56:07;;;;;;;46.60;21.58;;;4.70;99.90;;;;;;4996916;28;20610;-86
2022/11/14 00:58:52;;;;;;;56.85;21.98;;;4.70;99.90;;;;;;4997574;28;20049;-86
2022/11/14 01:01:37;;;;;;;55.40;22.23;;;4.70;99.90;;;;;;4997622;28;20045;-88
2022/11/14 01:04:21;;;;;;;59.53;24.50;;;4.70;99.90;;;;;;5002712;28;20045;-88
2022/11/14 01:07:06;;;;;;;58.17;22.55;;;4.70;99.90;;;;;;4996954;28;20046;-87
2022/11/14 01:09:51;;;;;;;61.45;23.60;;;4.70;99.90;;;;;;4997570;28;20069;-88
2022/11/14 01:12:36;;;;;;;62.28;24.70;;;4.70;99.90;;;;;;4998779;28;20046;-88
2022/11/14 01:15:20;;;;;;;54.65;23.70;;;4.70;99.90;;;;;;4999438;28;20057;-87
2022/11/14 01:18:05;;;;;;;58.72;24.83;;;4.70;99.90;;;;;;5013378;28;20053;-84
2022/11/14 01:20:49;;;;;;;52.28;22.85;;;4.70;99.90;;;;;;5020518;28;20037;-84
2022/11/14 01:23:34;;;;;;;65.43;24.90;;;4.80;99.90;;;;;;5001374;28;20042;-81
2022/11/14 01:26:19;;;;;;;67.60;24.50;;;4.80;99.90;;;;;;4999082;28;20053;-85
2022/11/14 01:29:04;;;;;;;69.55;24.77;;;4.80;99.90;;;;;;4996920;28;20045;-85
2022/11/14 01:31:49;;;;;;;68.57;24.40;;;4.80;99.90;;;;;;4977486;28;20053;-85
2022/11/14 01:34:33;;;;;;;62.20;26.40;;;4.80;99.90;;;;;;4977048;28;20042;-85
2022/11/14 01:37:18;;;;;;;64.63;25.45;;;4.80;99.90;;;;;;4976834;28;20057;-84
2022/11/14 01:40:03;;;;;;;73.47;25.58;;;4.80;99.90;;;;;;4976788;28;20058;-84
2022/11/14 01:43:09;;;;;;;56.63;25.73;;;4.80;99.90;;;;;;4976856;28;20072;-84
2022/11/14 01:45:59;;;;;;;64.78;23.90;;;4.80;99.90;;;;;;4968591;28;20055;-84
2022/11/14 01:48:49;;;;;;;71.80;27.10;;;4.80;99.90;;;;;;4977272;28;20073;-84
2022/11/14 01:51:56;;;;;;;70.68;27.10;;;4.80;99.90;;;;;;4976381;28;20045;-84
2022/11/14 01:54:46;;;;;;;79.70;26.58;;;4.80;99.90;;;;;;4976164;28;20592;-85
2022/11/14 01:57:39;;;;;;;67.10;26.27;;;4.80;99.90;;;;;;4975500;28;20049;-85
2022/11/14 02:00:24;;;;;;;73.88;27.08;;;4.80;99.90;;;;;;4966410;28;20053;-85
2022/11/14 02:03:12;;;;;;;77.50;29.02;;;4.90;99.90;;;;;;4967233;28;20053;-85
2022/11/14 02:05:58;;;;;;;79.18;28.75;;;4.90;99.90;;;;;;4975693;28;20065;-85
2022/11/14 02:08:43;;;;;;;77.63;27.05;;;4.90;99.90;;;;;;4976054;28;20053;-85
2022/11/14 02:11:31;;;;;;;66.53;29.02;;;4.80;99.90;;;;;;4974975;28;20284;-85
2022/11/14 02:14:16;;;;;;;76.72;30.42;;;4.90;99.90;;;;;;4975420;28;20472;-85
2022/11/14 02:17:00;;;;;;;72.10;28.95;;;4.90;99.90;;;;;;4976113;28;20420;-85
2022/11/14 02:19:51;;;;;;;77.63;29.55;;;4.90;99.90;;;;;;4970255;28;20062;-84
2022/11/14 02:22:39;;;;;;;80.80;29.33;;;4.90;99.90;;;;;;4975884;28;20050;-87
2022/11/14 02:25:25;;;;;;;78.22;28.52;;;5.00;99.90;;;;;;4975298;28;20049;-88
2022/11/14 02:28:10;;;;;;;81.82;32.92;;;4.90;99.90;;;;;;4975364;28;20046;-87
2022/11/14 02:30:55;;;;;;;68.15;29.48;;;5.00;99.90;;;;;;4975304;28;20061;-88
2022/11/14 02:33:40;;;;;;;72.50;27.83;;;5.00;99.90;;;;;;4975746;28;20045;-88
2022/11/14 02:36:25;;;;;;;76.30;28.10;;;5.00;99.90;;;;;;4975071;28;20065;-86
2022/11/14 02:39:10;;;;;;;65.25;27.23;;;5.10;99.90;;;;;;4975213;28;20499;-87
2022/11/14 02:41:54;;;;;;;72.63;29.85;;;5.10;99.90;;;;;;4975298;28;20046;-86
2022/11/14 02:44:39;;;;;;;74.07;30.85;;;5.10;99.90;;;;;;4975197;28;20507;-86
2022/11/14 02:47:23;;;;;;;67.43;27.52;;;5.10;99.90;;;;;;4974609;28;20460;-87
2022/11/14 02:50:09;;;;;;;72.28;28.75;;;5.10;99.90;;;;;;4975116;28;20045;-87
2022/11/14 02:52:54;;;;;;;82.85;32.95;;;5.10;99.90;;;;;;4966975;28;20070;-87
2022/11/14 02:55:39;;;;;;;76.43;30.85;;;5.10;99.90;;;;;;4975224;28;20410;-83
2022/11/14 02:58:23;;;;;;;74.13;30.05;;;5.10;99.90;;;;;;4974991;28;20058;-83
2022/11/14 03:01:08;;;;;;;74.40;29.23;;;5.10;99.90;;;;;;4974631;28;20054;-83
2022/11/14 03:03:53;;;;;;;75.63;29.67;;;5.20;99.90;;;;;;4966857;28;20054;-84
2022/11/14 03:06:38;;;;;;;73.05;29.48;;;5.20;99.90;;;;;;4966475;28;20054;-84
2022/11/14 03:09:22;;;;;;;74.32;29.17;;;5.20;99.90;;;;;;4975766;28;20045;-83
2022/11/14 03:12:07;;;;;;;81.38;30.38;;;5.20;99.90;;;;;;4974571;28;20066;-84
2022/11/14 03:14:52;;;;;;;69.22;27.25;;;5.20;99.90;;;;;;4966460;28;20050;-86
2022/11/14 03:17:37;;;;;;;68.35;29.98;;;5.20;99.90;;;;;;4964409;28;20399;-83
2022/11/14 03:20:21;;;;;;;76.18;29.88;;;5.20;99.90;;;;;;4965679;28;20046;-84
2022/11/14 03:23:06;;;;;;;70.05;29.17;;;5.20;99.90;;;;;;4974358;28;20066;-84
2022/11/14 03:25:50;;;;;;;76.63;28.70;;;5.20;99.90;;;;;;4974219;28;20484;-84
2022/11/14 03:28:35;;;;;;;71.75;29.73;;;5.30;99.90;;;;;;4973873;28;20053;-84
2022/11/14 03:31:20;;;;;;;72.72;31.23;;;5.30;99.90;;;;;;4973728;28;20054;-84
2022/11/14 03:34:04;;;;;;;66.07;28.52;;;5.30;99.90;;;;;;4974193;28;20054;-84
2022/11/14 03:36:49;;;;;;;70.47;29.45;;;5.40;99.90;;;;;;4974322;28;20046;-84
2022/11/14 03:39:33;;;;;;;63.65;29.67;;;5.40;99.90;;;;;;4973337;28;20058;-83
2022/11/14 03:42:17;;;;;;;54.80;27.42;;;5.40;99.90;;;;;;4973729;28;20050;-83
2022/11/14 03:45:02;;;;;;;54.80;27.40;;;5.40;99.90;;;;;;4974292;28;20044;-82
2022/11/14 03:47:47;;;;;;;54.85;25.90;;;5.50;99.90;;;;;;4974796;28;20053;-83
2022/11/14 03:50:32;;;;;;;51.08;25.88;;;5.50;99.90;;;;;;4981875;28;20054;-86
2022/11/14 03:53:16;;;;;;;49.10;25.40;;;5.50;99.90;;;;;;4986629;28;20041;-85
2022/11/14 03:56:01;;;;;;;44.00;24.02;;;5.50;99.90;;;;;;4990997;28;20037;-83
2022/11/14 03:58:46;;;;;;;49.25;26.10;;;5.50;99.90;;;;;;4998030;28;20025;-83
2022/11/14 04:01:31;;;;;;;43.38;23.13;;;5.50;99.90;;;;;;4986686;28;20045;-84
2022/11/14 04:04:15;;;;;;;46.13;24.80;;;5.50;99.90;;;;;;4973566;28;20046;-83
2022/11/14 04:07:00;;;;;;;52.60;26.35;;;5.50;99.90;;;;;;4974061;28;20396;-87
2022/11/14 04:09:46;;;;;;;56.40;25.40;;;5.50;99.90;;;;;;4973787;28;20058;-82
2022/11/14 04:12:30;;;;;;;47.75;25.00;;;5.50;99.90;;;;;;4973234;28;20499;-82
2022/11/14 04:15:16;;;;;;;52.08;27.88;;;5.50;99.90;;;;;;4973317;28;20510;-83
2022/11/14 04:18:00;;;;;;;51.85;26.08;;;5.50;99.90;;;;;;4962703;28;20054;-85
2022/11/14 04:20:45;;;;;;;52.53;27.13;;;5.50;99.90;;;;;;4973805;28;20101;-85
2022/11/14 04:23:29;;;;;;;44.88;27.38;;;5.40;99.90;;;;;;4967841;28;20065;-85
2022/11/14 04:26:14;;;;;;;47.80;25.73;;;5.40;99.90;;;;;;4980025;28;20050;-86
2022/11/14 04:29:00;;;;;;;48.67;24.58;;;5.50;99.90;;;;;;4980353;28;20062;-85
2022/11/14 04:31:44;;;;;;;45.92;25.95;;;5.40;99.90;;;;;;4980013;28;20119;-87
2022/11/14 04:34:28;;;;;;;46.85;24.63;;;5.40;99.90;;;;;;4979657;28;20045;-81
2022/11/14 04:37:13;;;;;;;41.15;23.23;;;5.40;99.90;;;;;;4990014;28;20041;-81
2022/11/14 04:39:59;;;;;;;39.47;20.98;;;5.30;99.90;;;;;;4999215;28;20053;-80
2022/11/14 04:42:44;;;;;;;40.78;20.77;;;5.20;99.90;;;;;;4993618;28;20049;-83
2022/11/14 04:45:29;;;;;;;37.72;19.05;;;5.20;99.90;;;;;;5016201;28;20399;-81
2022/11/14 04:48:13;;;;;;;34.47;19.42;;;5.20;99.90;;;;;;5001121;28;20395;-83
2022/11/14 04:50:58;;;;;;;33.83;18.80;;;5.20;99.90;;;;;;4999159;28;20053;-81
2022/11/14 04:53:43;;;;;;;32.28;19.60;;;5.20;99.90;;;;;;5000522;28;20033;-83
2022/11/14 04:56:28;;;;;;;29.30;16.00;;;5.20;99.90;;;;;;4998964;28;20041;-84
2022/11/14 04:59:13;;;;;;;32.17;18.60;;;5.20;99.90;;;;;;4999023;28;20053;-82
2022/11/14 05:01:57;;;;;;;29.58;18.27;;;5.20;99.90;;;;;;4990695;28;20049;-80
2022/11/14 05:04:43;;;;;;;36.72;19.88;;;5.20;99.90;;;;;;4990246;28;20479;-81
2022/11/14 05:07:27;;;;;;;30.88;16.85;;;5.20;99.90;;;;;;4984270;28;20045;-81
2022/11/14 05:10:12;;;;;;;29.23;18.15;;;5.30;99.90;;;;;;4999019;28;20058;-78
2022/11/14 05:12:57;;;;;;;28.67;16.45;;;5.20;99.90;;;;;;4998803;28;20065;-81
2022/11/14 05:15:41;;;;;;;28.83;16.45;;;5.20;99.90;;;;;;4998414;28;20061;-81
2022/11/14 05:18:26;;;;;;;30.00;16.63;;;5.30;99.90;;;;;;4998776;28;20491;-80
2022/11/14 05:21:14;;;;;;;30.90;17.23;;;5.30;99.90;;;;;;4999136;28;20049;-81
2022/11/14 05:23:59;;;;;;;31.30;16.17;;;5.30;99.90;;;;;;4998890;28;20045;-81
2022/11/14 05:26:44;;;;;;;32.47;16.42;;;5.30;99.90;;;;;;4998876;28;20045;-84
2022/11/14 05:29:28;;;;;;;29.67;16.25;;;5.30;99.90;;;;;;4992362;28;20060;-85
2022/11/14 05:32:13;;;;;;;31.90;16.80;;;5.30;99.90;;;;;;5010445;28;20403;-80
2022/11/14 05:34:57;;;;;;;31.05;18.00;;;5.30;99.90;;;;;;5007810;28;20345;-83
2022/11/14 05:37:42;;;;;;;29.15;15.60;;;5.30;99.90;;;;;;5014808;28;20105;-83
2022/11/14 05:40:26;;;;;;;28.20;16.73;;;5.30;99.90;;;;;;5006288;28;20045;-84
2022/11/14 05:43:12;;;;;;;28.85;16.35;;;5.30;99.90;;;;;;5015618;28;20575;-77
2022/11/14 05:46:01;;;;;;;31.48;16.00;;;5.30;99.90;;;;;;5007209;28;20399;-79
2022/11/14 05:48:45;;;;;;;29.08;15.93;;;5.30;99.90;;;;;;5002230;28;20394;-77
2022/11/14 05:51:30;;;;;;;30.52;16.02;;;5.40;99.90;;;;;;5014603;28;20057;-77
2022/11/14 05:54:14;;;;;;;25.17;15.05;;;5.40;99.90;;;;;;5006922;28;20160;-77
2022/11/14 05:56:58;;;;;;;26.42;15.48;;;5.40;99.90;;;;;;5016003;28;20394;-77
2022/11/14 05:59:43;;;;;;;29.30;16.33;;;5.40;99.90;;;;;;5014369;28;20502;-78
2022/11/14 06:02:28;;;;;;;24.30;13.55;;;5.40;99.90;;;;;;5013615;28;20045;-77
2022/11/14 06:05:12;;;;;;;27.63;14.52;;;5.40;99.90;;;;;;4995250;28;20510;-77
2022/11/14 06:07:58;;;;;;;25.30;13.68;;;5.40;99.90;;;;;;4995306;28;20049;-77
2022/11/14 06:10:43;;;;;;;27.42;15.25;;;5.40;99.90;;;;;;4994183;28;20064;-78
2022/11/14 06:13:28;;;;;;;23.88;13.38;;;5.40;99.90;;;;;;4994102;28;20045;-78
2022/11/14 06:16:15;;;;;;;27.65;14.15;;;5.40;99.90;;;;;;4994439;28;20038;-78
2022/11/14 06:19:00;;;;;;;27.30;12.48;;;5.40;99.90;;;;;;4995075;28;20065;-77
2022/11/14 06:21:45;;;;;;;27.55;16.70;;;5.40;99.90;;;;;;4986024;28;20049;-77
2022/11/14 06:24:29;;;;;;;26.73;15.05;;;5.30;99.90;;;;;;4986043;28;20041;-78
2022/11/14 06:27:14;;;;;;;24.02;14.85;;;5.30;99.90;;;;;;5000276;28;20045;-77
2022/11/14 06:29:58;;;;;;;28.65;14.05;;;5.30;99.90;;;;;;4983709;28;20061;-78
2022/11/14 06:32:43;;;;;;;24.58;13.25;;;5.30;99.90;;;;;;4985775;28;20420;-78
2022/11/14 06:35:27;;;;;;;24.60;14.18;;;5.40;99.90;;;;;;4993981;28;20049;-78
2022/11/14 06:38:12;;;;;;;22.98;13.75;;;5.40;99.90;;;;;;5000147;28;20118;-77
2022/11/14 06:41:17;;;;;;;23.15;14.48;;;5.40;99.90;;;;;;4994633;28;20053;-78
2022/11/14 06:44:02;;;;;;;22.45;14.07;;;5.40;99.90;;;;;;4994490;28;20045;-78
2022/11/14 06:46:47;;;;;;;25.10;14.40;;;5.50;99.90;;;;;;4993492;28;20045;-77
2022/11/14 06:49:32;;;;;;;24.48;15.35;;;5.50;99.90;;;;;;5000319;28;20388;-78
2022/11/14 06:52:16;;;;;;;28.35;14.18;;;5.40;99.90;;;;;;4994034;28;20050;-78
2022/11/14 06:55:01;;;;;;;19.75;12.60;;;5.50;99.90;;;;;;5012647;28;20053;-79
2022/11/14 06:57:53;;;;;;;25.77;13.88;;;5.50;99.90;;;;;;5012062;28;20048;-79
2022/11/14 07:00:37;;;;;;;;;;;5.50;99.90;;;;;;5012994;28;20053;-79
2022/11/14 07:03:22;;;;;;;19.98;10.77;;;5.50;99.90;;;;;;5016572;28;19925;-79
2022/11/14 07:06:18;;;;;;;21.15;11.27;;;5.60;99.90;;;;;;5013547;28;20041;-78
2022/11/14 07:09:03;;;;;;;18.38;10.30;;;5.60;99.90;;;;;;5013306;28;20041;-79
2022/11/14 07:11:47;;;;;;;18.70;11.85;;;5.60;99.90;;;;;;5010322;28;20041;-79
2022/11/14 07:14:32;;;;;;;20.30;11.20;;;5.60;99.90;;;;;;5006276;28;20048;-79
2022/11/14 07:17:16;;;;;;;19.60;11.13;;;5.60;99.90;;;;;;4995714;28;20068;-78
2022/11/14 07:20:01;;;;;;;19.63;11.75;;;5.60;99.90;;;;;;5004224;28;20506;-79
2022/11/14 07:22:46;;;;;;;18.15;10.95;;;5.60;99.90;;;;;;4998907;28;20041;-78
2022/11/14 07:25:31;;;;;;;23.88;14.27;;;5.60;99.90;;;;;;4993477;28;20494;-79
2022/11/14 07:28:15;;;;;;;18.70;11.13;;;5.70;99.90;;;;;;4993549;28;20057;-78
2022/11/14 07:31:07;;;;;;;22.25;12.98;;;5.80;99.90;;;;;;4993589;28;20065;-78
2022/11/14 07:33:53;;;;;;;19.77;12.60;;;5.80;99.90;;;;;;4993564;28;20041;-78
2022/11/14 07:36:37;;;;;;;20.65;12.43;;;5.90;99.90;;;;;;4992869;28;20041;-78
2022/11/14 07:39:22;;;;;;;21.17;12.20;;;5.90;99.90;;;;;;4993582;28;20041;-77
2022/11/14 07:42:06;;;;;;;24.10;13.52;;;6.00;99.90;;;;;;4993188;28;20400;-77
2022/11/14 07:44:51;;;;;;;19.40;12.70;;;6.10;99.90;;;;;;4992794;28;20061;-77
2022/11/14 07:47:36;;;;;;;21.15;12.98;;;6.30;99.90;;;;;;4992925;28;20487;-78
2022/11/14 07:50:20;;;;;;;16.98;10.57;;;6.50;99.90;;;;;;4993287;28;20053;-78
2022/11/14 07:53:05;;;;;;;19.67;11.02;;;6.80;99.90;;;;;;4993223;28;20049;-78
2022/11/14 07:55:49;;;;;;;18.63;9.93;;;7.20;99.90;;;;;;4997879;28;20049;-80
2022/11/14 07:58:38;;;;;;;14.18;9.73;;;7.40;99.90;;;;;;5001828;28;20044;-81
2022/11/14 08:01:22;;;;;;;16.02;8.98;;;7.50;99.90;;;;;;5013182;28;20597;-81
2022/11/14 08:04:07;;;;;;;17.67;10.43;;;7.90;99.90;;;;;;5015607;28;20045;-81
2022/11/14 08:06:52;;;;;;;14.65;8.57;;;8.10;99.90;;;;;;5015531;28;20506;-82
2022/11/14 08:09:36;;;;;;;16.70;9.63;;;7.50;98.80;;;;;;5029716;28;20044;-82
2022/11/14 08:12:21;;;;;;;14.82;9.73;;;7.20;99.90;;;;;;5035908;28;20056;-82
2022/11/14 08:15:10;;;;;;;17.70;12.20;;;7.00;99.90;;;;;;5024098;28;20052;-83
2022/11/14 08:17:59;;;;;;;17.05;10.80;;;6.80;99.90;;;;;;5013345;28;20053;-82
2022/11/14 08:20:44;;;;;;;13.77;9.70;;;6.70;99.90;;;;;;5012349;28;20057;-82
2022/11/14 08:23:29;;;;;;;14.98;9.93;;;6.80;99.90;;;;;;5012636;28;20060;-82
2022/11/14 08:26:14;;;;;;;14.70;10.23;;;7.00;99.90;;;;;;5012615;28;20105;-82
2022/11/14 08:28:58;;;;;;;16.40;9.85;;;7.10;99.90;;;;;;5012332;28;20065;-83
2022/11/14 08:31:45;;;;;;;16.05;10.13;;;7.10;97.70;;;;;;5011582;28;20053;-83
2022/11/14 08:34:30;;;;;;;15.45;11.02;;;6.90;98.20;;;;;;5012603;28;20049;-83
2022/11/14 08:37:14;;;;;;;15.23;9.95;;;6.90;99.60;;;;;;5012365;28;20526;-81
2022/11/14 08:39:59;;;;;;;16.42;9.60;;;6.90;98.90;;;;;;5012255;28;20494;-83
2022/11/14 08:42:43;;;;;;;15.80;11.20;;;6.80;98.50;;;;;;5011545;28;20503;-83
2022/11/14 08:45:28;;;;;;;15.75;10.05;;;6.90;99.90;;;;;;5012258;28;20057;-83
2022/11/14 08:48:13;;;;;;;14.25;10.10;;;7.00;99.90;;;;;;5012529;28;20049;-83
2022/11/14 08:51:03;;;;;;;17.27;11.55;;;7.00;99.90;;;;;;5012233;28;20060;-83
2022/11/14 08:53:50;;;;;;;19.67;12.63;;;6.90;99.90;;;;;;5011828;28;20057;-83
2022/11/14 08:56:35;;;;;;;18.20;10.57;;;6.90;99.90;;;;;;5011665;28;20053;-83
2022/11/14 08:59:19;;;;;;;14.77;10.02;;;6.90;99.90;;;;;;5012072;28;20061;-83
2022/11/14 09:02:04;;;;;;;16.58;10.13;;;6.90;99.90;;;;;;5012108;28;20049;-83
2022/11/14 09:04:49;;;;;;;14.30;10.60;;;7.00;99.90;;;;;;5011788;28;20041;-83
2022/11/14 09:07:33;;;;;;;14.73;9.65;;;7.30;99.90;;;;;;5012151;28;20044;-82
2022/11/14 09:10:18;;;;;;;15.02;10.35;;;7.60;99.90;;;;;;5014277;28;20049;-83
2022/11/14 09:13:03;;;;;;;15.48;9.80;;;7.60;92.60;;;;;;5015645;28;20049;-83
2022/11/14 09:15:47;;;;;;;14.05;9.20;;;7.40;92.20;;;;;;5015142;28;20127;-83
2022/11/14 09:18:31;;;;;;;13.68;9.27;;;7.40;94.10;;;;;;5015987;28;20044;-83
2022/11/14 09:21:16;;;;;;;15.85;9.60;;;7.30;95.50;;;;;;5015782;28;20045;-83
2022/11/14 09:24:00;;;;;;;16.60;10.10;;;7.30;97.30;;;;;;5016497;28;20061;-83
2022/11/14 09:26:45;;;;;;;15.35;10.48;;;7.40;97.40;;;;;;5015125;28;20057;-83
2022/11/14 09:29:29;;;;;;;13.63;9.90;;;7.40;93.40;;;;;;5015391;28;20077;-83
2022/11/14 09:32:14;;;;;;;16.02;10.20;;;7.50;95.90;;;;;;5015276;28;20057;-83
2022/11/14 09:34:59;;;;;;;14.63;10.43;;;7.40;92.20;;;;;;5015558;28;20053;-83
2022/11/14 09:37:43;;;;;;;15.02;10.55;;;7.30;92.40;;;;;;5015012;28;20053;-83
2022/11/14 09:40:28;;;;;;;16.50;10.27;;;7.30;95.30;;;;;;5015822;28;20052;-83
2022/11/14 09:43:30;;;;;;;14.90;9.55;;;7.30;94.90;;;;;;5015352;28;20049;-83
2022/11/14 09:46:24;;;;;;;16.75;9.57;;;7.30;95.80;;;;;;5016084;28;20045;-83
2022/11/14 09:49:40;;;;;;;15.95;9.85;;;7.30;96.00;;;;;;5015330;28;20117;-83
2022/11/14 09:52:46;;;;;;;14.73;9.55;;;7.40;97.70;;;;;;5021592;28;20053;-83
2022/11/14 09:55:34;;;;;;;18.48;10.73;;;7.50;94.30;;;;;;5015327;28;20049;-83
2022/11/14 09:58:20;;;;;;;17.15;10.88;;;7.60;92.90;;;;;;5015396;28;20049;-83
2022/11/14 10:01:31;;;;;;;15.30;10.50;;;7.70;95.70;;;;;;5022499;28;20057;-83
2022/11/14 10:04:27;;;;;;;15.80;11.50;;;7.50;91.60;;;;;;5015211;28;20053;-83
2022/11/14 10:07:37;;;;;;;16.85;11.48;;;7.50;95.10;;;;;;5014957;28;20490;-83
2022/11/14 10:10:53;;;;;;;15.60;10.30;;;7.40;97.20;;;;;;5014933;28;20049;-82
2022/11/14 10:14:00;;;;;;;17.15;9.90;;;7.50;96.30;;;;;;5020922;28;20415;-82
2022/11/14 10:16:56;;;;;;;18.83;12.10;;;7.70;94.20;;;;;;5014049;28;20045;-83
2022/11/14 10:20:01;;;;;;;16.05;11.57;;;7.80;93.60;;;;;;5020791;28;20056;-82
2022/11/14 10:23:05;;;;;;;17.08;10.05;;;7.90;90.90;;;;;;5004966;28;20057;-82
2022/11/14 10:26:11;;;;;;;16.45;10.90;;;8.10;90.80;;;;;;5014006;28;20052;-82
2022/11/14 10:29:14;;;;;;;14.10;10.25;;;8.30;82.20;;;;;;5019296;28;20090;-82
2022/11/14 10:32:18;;;;;;;15.55;10.52;;;8.40;75.60;;;;;;5020920;28;20052;-82
2022/11/14 10:35:17;;;;;;;14.30;9.98;;;8.70;75.50;;;;;;5021011;28;20049;-82
2022/11/14 10:38:20;;;;;;;12.98;9.00;;;8.90;58.20;;;;;;4999342;28;20064;-83
2022/11/14 10:41:08;;;;;;;14.73;9.02;;;9.00;53.30;;;;;;5013961;28;20494;-83
2022/11/14 10:43:54;;;;;;;15.10;9.55;;;9.10;56.90;;;;;;5013766;28;20041;-81
2022/11/14 10:46:44;;;;;;;18.92;9.43;;;9.30;56.40;;;;;;5013593;28;20395;-80
2022/11/14 10:49:34;;;;;;;14.98;8.82;;;9.40;52.10;;;;;;5020617;28;20077;-82
2022/11/14 10:52:24;;;;;;;12.55;8.65;;;9.40;55.40;;;;;;5016706;28;20057;-82
2022/11/14 10:55:14;;;;;;;11.27;8.43;;;9.70;48.70;;;;;;5013779;28;20395;-82
2022/11/14 10:57:59;;;;;;;10.33;7.70;;;10.10;39.60;;;;;;5013291;28;20049;-83
2022/11/14 11:00:44;;;;;;;11.13;6.97;;;10.50;36.30;;;;;;5013050;28;20383;-83
2022/11/14 11:03:42;;;;;;;9.20;7.03;;;10.70;25.50;;;;;;5013442;28;20037;-81
2022/11/14 11:06:28;;;;;;;11.35;6.85;;;10.70;29.50;;;;;;5013952;28;20041;-79
2022/11/14 11:12:35;;;;;;;10.00;6.68;;;10.50;33.90;;;;;;5013492;28;20121;-83
2022/11/14 11:15:30;;;;;;;9.70;5.30;;;10.50;33.30;;;;;;5013896;28;20056;-84
2022/11/14 11:18:35;;;;;;;9.85;5.65;;;10.40;43.00;;;;;;5013413;28;20053;-82
2022/11/14 11:21:22;;;;;;;11.43;5.45;;;10.50;40.40;;;;;;5020516;28;20049;-84
2022/11/14 11:24:08;;;;;;;6.18;3.92;;;10.70;47.20;;;;;;5013486;28;20041;-83
2022/11/14 11:27:19;;;;;;;6.90;3.67;;;10.70;42.20;;;;;;5012842;28;20049;-82
2022/11/14 11:30:24;;;;;;;6.47;3.78;;;10.60;39.80;;;;;;5008944;28;20048;-83
2022/11/14 11:33:16;;;;;;;6.28;2.83;;;10.60;43.20;;;;;;4993804;28;20053;-85
2022/11/14 11:36:10;;;;;;;5.15;3.55;;;10.40;44.80;;;;;;5014577;28;20267;-84
2022/11/14 11:38:55;;;;;;;5.07;3.58;;;10.40;50.20;;;;;;5014497;28;20029;-86
2022/11/14 11:41:40;;;;;;;4.60;3.13;;;10.50;50.60;;;;;;4997341;28;20037;-83
2022/11/14 11:44:35;;;;;;;8.48;3.75;;;10.40;53.20;;;;;;4987570;28;20049;-82
2022/11/14 11:47:20;;;;;;;7.28;3.60;;;10.30;51.70;;;;;;4991878;28;20033;-84
2022/11/14 11:50:14;;;;;;;6.78;3.85;;;10.30;58.00;;;;;;5013543;28;20045;-82
2022/11/14 11:53:06;;;;;;;5.55;3.47;;;10.30;55.00;;;;;;5016258;28;20052;-84
2022/11/14 11:56:24;;;;;;;9.98;4.72;;;10.30;55.20;;;;;;5021704;28;20057;-83
2022/11/14 11:59:32;;;;;;;6.65;3.60;;;10.20;54.30;;;;;;5019958;28;20422;-82
2022/11/14 12:02:26;;;;;;;6.93;4.40;;;10.20;57.20;;;;;;5004787;28;20055;-84
2022/11/14 12:05:49;;;;;;;9.30;4.97;;;10.10;61.10;;;;;;4999531;28;20503;-84
2022/11/14 12:08:51;;;;;;;8.18;4.47;;;10.10;66.50;;;;;;4993015;28;20391;-84
2022/11/14 12:11:39;;;;;;;8.95;5.40;;;10.10;71.70;;;;;;4993057;28;20045;-83
2022/11/14 12:15:01;;;;;;;10.00;5.90;;;10.20;76.20;;;;;;4992954;28;20038;-84
2022/11/14 12:17:59;;;;;;;10.35;6.80;;;10.20;73.20;;;;;;5005416;28;20044;-83
2022/11/14 12:21:06;;;;;;;15.05;9.00;;;10.10;69.20;;;;;;5004523;28;20151;-80
2022/11/14 12:24:20;;;;;;;10.63;6.40;;;10.10;74.10;;;;;;5016385;28;20033;-83
2022/11/14 12:27:25;;;;;;;9.10;4.97;;;10.00;74.10;;;;;;4972450;28;20407;-83
2022/11/14 12:30:16;;;;;;;6.30;5.20;;;10.00;74.80;;;;;;4992265;28;20058;-83
2022/11/14 12:33:08;;;;;;;8.13;4.72;;;10.10;78.00;;;;;;5002489;28;20061;-83
2022/11/14 12:35:59;;;;;;;8.77;4.55;;;10.10;79.40;;;;;;4992477;28;20046;-83
2022/11/14 12:38:46;;;;;;;;;;;10.20;78.80;;;;;;4998422;28;20053;-81
2022/11/14 12:41:33;;;;;;;6.47;4.20;;;10.30;77.30;;;;;;4985149;28;19913;-83
2022/11/14 12:44:27;;;;;;;7.40;4.53;;;10.40;79.20;;;;;;4993716;28;20053;-84
2022/11/14 12:47:15;;;;;;;6.28;4.22;;;10.50;81.10;;;;;;4996565;28;20053;-83
2022/11/14 12:50:01;;;;;;;7.95;4.60;;;10.50;74.90;;;;;;4996598;28;20050;-83
2022/11/14 12:52:49;;;;;;;7.28;4.32;;;10.50;74.50;;;;;;4996039;28;20049;-83
2022/11/14 12:55:33;;;;;;;8.52;4.85;;;10.50;79.00;;;;;;4996573;28;20049;-83
2022/11/14 12:58:55;;;;;;;6.25;4.88;;;10.50;78.00;;;;;;4996711;28;20057;-84
2022/11/14 13:01:52;;;;;;;7.00;5.47;;;10.40;76.80;;;;;;4976903;28;20050;-84
2022/11/14 13:05:15;;;;;;;10.40;5.15;;;10.40;84.10;;;;;;4977112;28;20046;-84
2022/11/14 13:08:08;;;;;;;10.73;6.30;;;10.40;79.80;;;;;;4976004;28;20054;-83
2022/11/14 13:10:53;;;;;;;8.05;5.32;;;10.40;82.00;;;;;;4968143;28;20058;-83
2022/11/14 13:23:27;;;;;;;13.02;7.72;;;10.00;90.40;;;;;;4983355;28;20115;-82
2022/11/14 13:26:31;;;;;;;12.18;7.75;;;9.90;88.50;;;;;;4977062;28;20042;-85
2022/11/14 13:29:35;;;;;;;14.77;9.75;;;10.00;88.90;;;;;;4976820;28;20046;-83
2022/11/14 13:32:41;;;;;;;17.00;10.88;;;10.10;80.00;;;;;;4976313;28;20069;-83
2022/11/14 13:35:51;;;;;;;11.48;8.68;;;10.10;71.10;;;;;;4989055;28;20499;-83
2022/11/14 13:39:05;;;;;;;12.57;9.23;;;10.20;72.50;;;;;;4987855;28;20042;-83
2022/11/14 13:42:01;;;;;;;13.10;8.57;;;10.20;67.00;;;;;;4995826;28;20049;-84
2022/11/14 13:45:23;;;;;;;14.02;9.23;;;10.20;67.70;;;;;;4995875;28;20045;-83
2022/11/14 13:48:26;;;;;;;8.95;5.20;;;10.10;70.50;;;;;;4974846;28;20061;-82
2022/11/14 13:51:15;;;;;;;8.50;5.40;;;10.00;73.50;;;;;;4975379;28;20050;-83
2022/11/14 13:54:00;;;;;;;8.32;5.40;;;10.00;71.70;;;;;;4974867;28;20379;-84
2022/11/14 13:56:47;;;;;;;11.48;5.90;;;10.10;72.20;;;;;;4974938;28;20046;-85
2022/11/14 13:59:55;;;;;;;8.18;4.93;;;10.20;62.20;;;;;;4976478;28;20045;-85
2022/11/14 14:03:14;;;;;;;7.70;4.80;;;10.10;68.00;;;;;;4982337;28;20042;-86
2022/11/14 14:06:25;;;;;;;9.38;5.63;;;10.20;63.30;;;;;;4975109;28;20389;-86
2022/11/14 14:10:01;;;;;;;6.93;4.72;;;10.40;57.10;;;;;;4974815;28;20208;-87
2022/11/14 14:12:57;;;;;;;9.57;7.13;;;10.40;54.90;;;;;;4952891;28;20050;-86
2022/11/14 14:16:04;;;;;;;7.90;5.30;;;10.40;58.40;;;;;;4980859;28;20034;-84
2022/11/14 14:19:06;;;;;;;7.47;4.88;;;10.40;57.20;;;;;;4996532;28;20399;-87
2022/11/14 14:22:17;;;;;;;9.07;5.22;;;10.40;54.50;;;;;;4994898;28;20062;-80
2022/11/14 14:25:07;;;;;;;8.95;4.90;;;10.30;57.60;;;;;;4993831;28;20069;-80
2022/11/14 14:28:17;;;;;;;7.63;5.20;;;10.20;58.90;;;;;;4986003;28;20495;-81
2022/11/14 14:31:23;;;;;;;7.57;4.68;;;10.10;57.90;;;;;;4974278;28;20222;-82
2022/11/14 14:34:21;;;;;;;9.60;4.93;;;10.10;57.80;;;;;;4981892;28;20373;-84
2022/11/14 14:37:18;;;;;;;7.22;5.18;;;10.10;54.60;;;;;;4990286;28;20041;-82
2022/11/14 14:40:05;;;;;;;6.25;4.25;;;10.00;57.10;;;;;;4994142;28;20114;-83
2022/11/14 14:42:50;;;;;;;9.80;5.68;;;9.90;60.80;;;;;;4999186;28;20046;-81
2022/11/14 14:45:45;;;;;;;6.65;5.00;;;9.90;63.30;;;;;;4998249;28;20039;-82
2022/11/14 14:48:32;;;;;;;8.88;5.60;;;9.80;65.50;;;;;;4968197;28;20410;-83